Map

Track Data

SID SEASON NUMBER BASIN SUBBASIN NAME ISO_TIME NATURE LAT LON WMO_WIND WMO_PRES WMO_AGENCY TRACK_TYPE DIST2LAND LANDFALL IFLAG USA_AGENCY USA_ATCF_ID USA_LAT USA_LON USA_RECORD USA_STATUS USA_WIND USA_PRES USA_SSHS USA_R34_NE USA_R34_SE USA_R34_SW USA_R34_NW USA_R50_NE USA_R50_SE USA_R50_SW USA_R50_NW USA_R64_NE USA_R64_SE USA_R64_SW USA_R64_NW USA_POCI USA_ROCI USA_RMW USA_EYE TOKYO_LAT TOKYO_LON TOKYO_GRADE TOKYO_WIND TOKYO_PRES TOKYO_R50_DIR TOKYO_R50_LONG TOKYO_R50_SHORT TOKYO_R30_DIR TOKYO_R30_LONG TOKYO_R30_SHORT TOKYO_LAND CMA_LAT CMA_LON CMA_CAT CMA_WIND CMA_PRES HKO_LAT HKO_LON HKO_CAT HKO_WIND HKO_PRES NEWDELHI_LAT NEWDELHI_LON NEWDELHI_GRADE NEWDELHI_WIND NEWDELHI_PRES NEWDELHI_CI NEWDELHI_DP NEWDELHI_POCI REUNION_LAT REUNION_LON REUNION_TYPE REUNION_WIND REUNION_PRES REUNION_TNUM REUNION_CI REUNION_RMW REUNION_R34_NE REUNION_R34_SE REUNION_R34_SW REUNION_R34_NW REUNION_R50_NE REUNION_R50_SE REUNION_R50_SW REUNION_R50_NW REUNION_R64_NE REUNION_R64_SE REUNION_R64_SW REUNION_R64_NW BOM_LAT BOM_LON BOM_TYPE BOM_WIND BOM_PRES BOM_TNUM BOM_CI BOM_RMW BOM_R34_NE BOM_R34_SE BOM_R34_SW BOM_R34_NW BOM_R50_NE BOM_R50_SE BOM_R50_SW BOM_R50_NW BOM_R64_NE BOM_R64_SE BOM_R64_SW BOM_R64_NW BOM_ROCI BOM_POCI BOM_EYE BOM_POS_METHOD BOM_PRES_METHOD NADI_LAT NADI_LON NADI_CAT NADI_WIND NADI_PRES WELLINGTON_LAT WELLINGTON_LON WELLINGTON_WIND WELLINGTON_PRES DS824_LAT DS824_LON DS824_STAGE DS824_WIND DS824_PRES TD9636_LAT TD9636_LON TD9636_STAGE TD9636_WIND TD9636_PRES TD9635_LAT TD9635_LON TD9635_WIND TD9635_PRES TD9635_ROCI NEUMANN_LAT NEUMANN_LON NEUMANN_CLASS NEUMANN_WIND NEUMANN_PRES MLC_LAT MLC_LON MLC_CLASS MLC_WIND MLC_PRES USA_GUST BOM_GUST BOM_GUST_PER REUNION_GUST REUNION_GUST_PER USA_SEAHGT USA_SEARAD_NE USA_SEARAD_SE USA_SEARAD_SW USA_SEARAD_NW STORM_SPEED STORM_DIR
1965289N28282 1965 110 NA NA NOT_NAMED 1965-10-16 06:00:00 TS 27.5000 -78.0000 25 hurdat_atl main 212 212 O_____________ hurdat_atl AL091965 27.5000 -78.0000 TD 25 -1 7 142
1965289N28282 1965 110 NA NA NOT_NAMED 1965-10-16 09:00:00 TS 27.2126 -77.7497 main 231 215 P_____________ AL091965 27.2126 -77.7497 TD 27 -1 7 138
1965289N28282 1965 110 NA NA NOT_NAMED 1965-10-16 12:00:00 TS 27.0000 -77.5000 30 hurdat_atl main 218 209 O_____________ hurdat_atl AL091965 27.0000 -77.5000 TD 30 -1 5 123
1965289N28282 1965 110 NA NA NOT_NAMED 1965-10-16 15:00:00 TS 26.9250 -77.2500 main 216 212 P_____________ AL091965 26.9250 -77.2500 TD 32 -1 4 90
1965289N28282 1965 110 NA NA NOT_NAMED 1965-10-16 18:00:00 TS 27.0000 -77.0000 35 hurdat_atl main 234 234 O_____________ hurdat_atl AL091965 27.0000 -77.0000 TS 35 0 5 57
1965289N28282 1965 110 NA NA NOT_NAMED 1965-10-16 21:00:00 TS 27.2125 -76.7501 main 263 263 P_____________ AL091965 27.2125 -76.7501 TS 37 0 7 42
1965289N28282 1965 110 NA NA NOT_NAMED 1965-10-17 00:00:00 TS 27.5000 -76.5000 40 hurdat_atl main 306 306 O_____________ hurdat_atl AL091965 27.5000 -76.5000 TS 40 0 7 40
1965289N28282 1965 110 NA NA NOT_NAMED 1965-10-17 03:00:00 TS 27.7500 -76.2499 main 341 341 P_____________ AL091965 27.7500 -76.2499 TS 42 0 7 42
1965289N28282 1965 110 NA NA NOT_NAMED 1965-10-17 06:00:00 TS 28.0000 -76.0000 45 hurdat_atl main 380 380 O_____________ hurdat_atl AL091965 28.0000 -76.0000 TS 45 0 7 46
1965289N28282 1965 110 NA NA NOT_NAMED 1965-10-17 09:00:00 TS 28.2126 -75.7126 main 414 414 P_____________ AL091965 28.2126 -75.7126 TS 47 0 7 41
1965289N28282 1965 110 NA NA NOT_NAMED 1965-10-17 12:00:00 TS 28.5000 -75.5000 50 hurdat_atl main 453 453 O_____________ hurdat_atl AL091965 28.5000 -75.5000 TS 50 0 8 20
1965289N28282 1965 110 NA NA NOT_NAMED 1965-10-17 15:00:00 TS 28.9996 -75.3879 main 499 496 P_____________ AL091965 28.9996 -75.3879 TS 50 0 10 1
1965289N28282 1965 110 NA NA NOT_NAMED 1965-10-17 18:00:00 TS 29.5000 -75.5000 50 hurdat_atl main 498 469 O_____________ hurdat_atl AL091965 29.5000 -75.5000 TS 50 0 9 332
1965289N28282 1965 110 NA NA NOT_NAMED 1965-10-17 21:00:00 TS 29.8248 -75.8868 main 469 422 P_____________ AL091965 29.8248 -75.8868 TS 50 0 10 300
1965289N28282 1965 110 NA NA NOT_NAMED 1965-10-18 00:00:00 TS 30.0000 -76.5000 50 hurdat_atl main 422 374 O_____________ hurdat_atl AL091965 30.0000 -76.5000 TS 50 0 11 282
1965289N28282 1965 110 NA NA NOT_NAMED 1965-10-18 03:00:00 TS 30.0669 -77.1748 main 366 294 P_____________ AL091965 30.0669 -77.1748 TS 52 0 13 270
1965289N28282 1965 110 NA NA NOT_NAMED 1965-10-18 06:00:00 TS 30.0000 -78.0000 55 hurdat_atl main 294 208 O_____________ hurdat_atl AL091965 30.0000 -78.0000 TS 55 0 16 261
1965289N28282 1965 110 NA NA NOT_NAMED 1965-10-18 09:00:00 TS 29.8270 -78.9460 main 208 111 P_____________ AL091965 29.8270 -78.9460 TS 55 0 18 257
1965289N28282 1965 110 NA NA NOT_NAMED 1965-10-18 12:00:00 TS 29.6000 -80.0000 55 1004 hurdat_atl main 103 9 O_____________ hurdat_atl AL091965 29.6000 -80.0000 TS 55 1004 0 19 257
1965289N28282 1965 110 NA NA NOT_NAMED 1965-10-18 15:00:00 TS 29.4000 -81.1000 55 1004 hurdat_atl main 0 0 O_____________ hurdat_atl AL091965 29.4000 -81.1000 L TS 55 1004 0 16 256
1965289N28282 1965 110 NA NA NOT_NAMED 1965-10-18 18:00:00 TS 29.2000 -81.8000 40 hurdat_atl main 0 0 O_____________ hurdat_atl AL091965 29.2000 -81.8000 TS 40 0 11 246
1965289N28282 1965 110 NA NA NOT_NAMED 1965-10-18 21:00:00 TS 28.9733 -82.2142 main 0 0 P_____________ AL091965 28.9733 -82.2142 TS 35 0 8 231
1965289N28282 1965 110 NA NA NOT_NAMED 1965-10-19 00:00:00 TS 28.7000 -82.5000 30 hurdat_atl main 0 0 O_____________ hurdat_atl AL091965 28.7000 -82.5000 TD 30 -1 9 224
1965289N28282 1965 110 NA GM NOT_NAMED 1965-10-19 03:00:00 TS 28.3500 -82.9002 main 22 19 P_____________ AL091965 28.3500 -82.9002 TD 27 -1 10 225
1965289N28282 1965 110 NA GM NOT_NAMED 1965-10-19 06:00:00 TS 28.0000 -83.3000 25 hurdat_atl main 40 40 O_____________ hurdat_atl AL091965 28.0000 -83.3000 TD 25 -1 9 227
1965289N28282 1965 110 NA GM NOT_NAMED 1965-10-19 09:00:00 TS 27.7251 -83.6625 main 81 81 P_____________ AL091965 27.7251 -83.6625 TD 22 -1 8 231
1965289N28282 1965 110 NA GM NOT_NAMED 1965-10-19 12:00:00 TS 27.5000 -84.0000 20 hurdat_atl main 117 O_____________ hurdat_atl AL091965 27.5000 -84.0000 TD 20 -1 8 233

About IBTrACS Database

This database is a web-friendly format of International Best Track Archive for Climate Stewardship (IBTrACS), a global best track data archive curated by NOAA dating back to 1842.

Updated: 2021-12-03